Language: 


Des rapports , des résumés tant et plus, au choix de chacun....


Données statistiques de la station
Quotidien Rapport Février 14, 2017 Unités:  Anglais    Métrique   les deux
« Précédent Jour
Suivant Jour »
Quotidien Hebdomadaire Mensuel Annuel Actuel
  Haut: Bas: Moyen:
Température: 60.8 °F 34.9 °F 45.5 °F
Pt de rosée: 42.1 °F 29.8 °F 35.8 °F
Humidité: 83 % 49 % 70 %
Vitesse du vent: 8.7 mph 0 mph 3.5 mph
Rafales: 10.7 mph - -
Vent:- - SE
Pression: 30.4 in 30.2 in -
Précipitation: 0 in    
Historical Graphs
 
 
Données statistiques pour Février 14, 2017
Heure Température Point de rosée Pression Vent Vitesse du vent Refales Humidité Pluie (taux horaire)
00:02 37.6 °F 31.6 °F 30.2 in East 5.4 mph 6.5 mph 79 % 0 in
00:07 37.6 °F 31.5 °F 30.2 in East 3.6 mph 6.3 mph 79 % 0 in
00:12 37.2 °F 31.1 °F 30.2 in Calm   6 mph 78 % 0 in
00:17 37 °F 31.3 °F 30.2 in East 1.1 mph 5.6 mph 79 % 0 in
00:22 36.9 °F 30.9 °F 30.2 in ENE 1.6 mph 5.8 mph 79 % 0 in
00:27 36.9 °F 30.9 °F 30.2 in ENE 3.8 mph 5.8 mph 79 % 0 in
00:32 36.9 °F 30.9 °F 30.2 in East 4.3 mph 5.8 mph 79 % 0 in
00:37 36.7 °F 30.7 °F 30.2 in ENE 2.9 mph 5.8 mph 79 % 0 in
00:42 36.7 °F 30.9 °F 30.2 in East 4.9 mph 5.8 mph 80 % 0 in
00:47 36.3 °F 30.6 °F 30.2 in Calm   4.9 mph 79 % 0 in
00:52 36.1 °F 30.4 °F 30.2 in ENE 0.9 mph 4.9 mph 79 % 0 in
00:57 36.1 °F 30.2 °F 30.2 in NE 3.1 mph 4.9 mph 79 % 0 in
01:02 36.1 °F 30.6 °F 30.2 in ENE 2.9 mph 4.3 mph 80 % 0 in
01:07 36 °F 30.4 °F 30.2 in NE 4 mph 4.7 mph 80 % 0 in
01:12 35.8 °F 30 °F 30.2 in ENE 5.4 mph 5.4 mph 80 % 0 in
01:18 35.8 °F 30.4 °F 30.2 in East 0.9 mph 5.8 mph 81 % 0 in
01:23 35.8 °F 30.4 °F 30.2 in NE 2 mph 5.8 mph 81 % 0 in
01:28 35.8 °F 30.7 °F 30.2 in East 4.3 mph 5.4 mph 82 % 0 in
01:33 35.8 °F 30.7 °F 30.2 in East 3.4 mph 5.4 mph 82 % 0 in
01:38 35.8 °F 30.7 °F 30.2 in East 3.1 mph 5.6 mph 82 % 0 in
01:43 35.8 °F 30.7 °F 30.2 in East 3.6 mph 5.6 mph 82 % 0 in
01:48 36 °F 30.9 °F 30.2 in East 2.9 mph 4.9 mph 82 % 0 in
01:53 36 °F 30.9 °F 30.2 in East 4.9 mph 6 mph 82 % 0 in
01:58 36.1 °F 31.5 °F 30.2 in ENE 2 mph 6.5 mph 83 % 0 in
02:03 36.1 °F 31.1 °F 30.2 in ENE 2 mph 5.3 mph 82 % 0 in
02:08 36.1 °F 31.1 °F 30.2 in East 5.8 mph 5.8 mph 82 % 0 in
02:13 36.1 °F 31.1 °F 30.2 in East 5.8 mph 5.8 mph 82 % 0 in
02:18 36.1 °F 31.1 °F 30.2 in ESE 4.3 mph 6 mph 82 % 0 in
02:23 36.1 °F 31.1 °F 30.2 in ENE 5.4 mph 6 mph 82 % 0 in
02:28 36.1 °F 31.1 °F 30.2 in East 4.9 mph 6 mph 82 % 0 in
02:38 36.1 °F 31.1 °F 30.2 in East 4.3 mph 7.4 mph 82 % 0 in
02:43 36.1 °F 31.1 °F 30.2 in East 1.6 mph 5.8 mph 82 % 0 in
02:48 36.1 °F 31.1 °F 30.2 in East 3.4 mph 6.5 mph 82 % 0 in
02:53 36.1 °F 31.1 °F 30.2 in East 4.3 mph 6.5 mph 82 % 0 in
02:58 36 °F 30.9 °F 30.2 in ESE 3.8 mph 6 mph 82 % 0 in
03:03 36 °F 30.9 °F 30.2 in East 5.4 mph 6.3 mph 82 % 0 in
03:08 36 °F 30.9 °F 30.2 in ESE 5.8 mph 6.3 mph 82 % 0 in
03:13 36.1 °F 31.1 °F 30.2 in East 5.6 mph 6 mph 82 % 0 in
03:18 36.1 °F 31.1 °F 30.2 in East 4.7 mph 7.4 mph 82 % 0 in
03:23 36.1 °F 30.7 °F 30.2 in East 4.3 mph 7.4 mph 81 % 0 in
03:28 36 °F 30.6 °F 30.2 in East 5.8 mph 6 mph 81 % 0 in
03:33 36.1 °F 30.7 °F 30.2 in ENE 4 mph 6 mph 81 % 0 in
03:38 36 °F 30.6 °F 30.2 in NE 6.3 mph 6.3 mph 81 % 0 in
03:43 36 °F 30.6 °F 30.2 in ENE 4 mph 6.3 mph 81 % 0 in
03:48 36 °F 30.6 °F 30.2 in East 2.9 mph 7.4 mph 81 % 0 in
03:53 35.8 °F 30.4 °F 30.2 in ENE 4.5 mph 7.4 mph 81 % 0 in
03:58 36 °F 30.6 °F 30.2 in East 6.3 mph 7.2 mph 81 % 0 in
04:04 35.8 °F 30.4 °F 30.2 in East 5.6 mph 7.6 mph 81 % 0 in
04:08 35.8 °F 30.4 °F 30.2 in East 6.3 mph 7.6 mph 81 % 0 in
04:14 35.8 °F 30.4 °F 30.2 in East 3.4 mph 6.5 mph 81 % 0 in
04:19 35.8 °F 30.4 °F 30.2 in ESE 4.9 mph 7.4 mph 81 % 0 in
04:24 35.8 °F 30.4 °F 30.2 in East 5.4 mph 7.4 mph 81 % 0 in
04:29 35.8 °F 30.4 °F 30.2 in East 2.7 mph 6.7 mph 81 % 0 in
04:34 35.8 °F 30.4 °F 30.2 in ESE 4.3 mph 6.7 mph 81 % 0 in
04:39 35.8 °F 30.4 °F 30.2 in East 6 mph 6.9 mph 81 % 0 in
04:44 35.4 °F 30.4 °F 30.2 in East 4.9 mph 6.9 mph 81 % 0 in
04:49 35.4 °F 30.4 °F 30.2 in East 2.5 mph 6 mph 81 % 0 in
04:54 35.4 °F 30.4 °F 30.2 in ENE 4 mph 6 mph 81 % 0 in
04:59 35.4 °F 30.4 °F 30.2 in East 4.3 mph 6 mph 81 % 0 in
05:04 35.4 °F 30.4 °F 30.2 in ESE 3.6 mph 5.8 mph 82 % 0 in
05:09 35.4 °F 30.4 °F 30.2 in Calm   5.4 mph 82 % 0 in
05:14 35.4 °F 30.4 °F 30.2 in East 3.4 mph 4.3 mph 82 % 0 in
05:19 35.2 °F 30.2 °F 30.2 in Calm   5.4 mph 82 % 0 in
05:24 35.2 °F 30.2 °F 30.2 in East 4.7 mph 5.4 mph 82 % 0 in
05:29 35.1 °F 30 °F 30.2 in Calm   4.9 mph 82 % 0 in
05:34 35.1 °F 30 °F 30.2 in East 3.8 mph 4 mph 82 % 0 in
05:39 35.1 °F 30 °F 30.2 in East 2 mph 4.3 mph 82 % 0 in
05:44 34.9 °F 29.8 °F 30.2 in East 3.8 mph 4.7 mph 82 % 0 in
05:49 34.9 °F 30.2 °F 30.2 in East 4 mph 5.6 mph 83 % 0 in
05:54 35.1 °F 30.4 °F 30.2 in ESE 3.1 mph 5.8 mph 83 % 0 in
05:59 35.1 °F 30.4 °F 30.2 in East 5.4 mph 6.5 mph 83 % 0 in
06:04 35.1 °F 30.4 °F 30.2 in ESE 4.9 mph 6.5 mph 83 % 0 in
06:09 35.2 °F 30.6 °F 30.2 in ESE 4.9 mph 7.2 mph 83 % 0 in
06:10 35.2 °F 30.6 °F 30.2 in ESE 6 mph 7.2 mph 83 % 0 in
06:15 35.2 °F 30.6 °F 30.2 in East 4.9 mph 7.2 mph 83 % 0 in
06:20 35.4 °F 30.7 °F 30.2 in ESE 4 mph 6.5 mph 83 % 0 in
06:25 35.4 °F 30.7 °F 30.2 in ESE 4 mph 5.8 mph 83 % 0 in
06:30 35.4 °F 30.7 °F 30.2 in East 4.3 mph 5.8 mph 83 % 0 in
06:35 35.4 °F 30.7 °F 30.2 in SE 1.6 mph 7.8 mph 83 % 0 in
06:40 35.4 °F 30.4 °F 30.2 in ESE 4.7 mph 7.8 mph 82 % 0 in
06:45 35.2 °F 30.2 °F 30.2 in ESE 4.9 mph 6.3 mph 82 % 0 in
06:50 35.2 °F 30.2 °F 30.2 in ESE 6 mph 6.3 mph 82 % 0 in
06:55 35.2 °F 30.2 °F 30.2 in ESE 1.1 mph 6.5 mph 82 % 0 in
07:00 35.1 °F 30 °F 30.2 in ESE 1.6 mph 6.5 mph 82 % 0 in
07:05 35.1 °F 30 °F 30.2 in ESE 3.6 mph 4.9 mph 82 % 0 in
07:10 35.2 °F 30.6 °F 30.2 in Calm   5.6 mph 83 % 0 in
07:15 35.2 °F 30.6 °F 30.2 in Calm   6 mph 83 % 0 in
07:20 35.2 °F 30.6 °F 30.2 in East 2.2 mph 6 mph 83 % 0 in
07:25 35.4 °F 30.7 °F 30.2 in ESE 3.1 mph 6 mph 83 % 0 in
07:30 35.4 °F 30.6 °F 30.2 in ESE 3.8 mph 5.8 mph 82 % 0 in
07:35 35.4 °F 30.6 °F 30.2 in ESE 2.5 mph 5.6 mph 82 % 0 in
07:40 35.4 °F 30.6 °F 30.2 in ENE 2.7 mph 5.4 mph 82 % 0 in
07:45 35.4 °F 30.6 °F 30.2 in East 3.4 mph 4.7 mph 82 % 0 in
07:50 35.4 °F 30.6 °F 30.2 in East 3.4 mph 4.3 mph 82 % 0 in
07:55 35.4 °F 30.4 °F 30.2 in East 4 mph 5.8 mph 81 % 0 in
08:00 35.4 °F 30.4 °F 30.2 in Calm   5.8 mph 81 % 0 in
08:05 35.4 °F 30.4 °F 30.2 in ESE 2.9 mph 4.3 mph 81 % 0 in
08:10 35.4 °F 30.4 °F 30.2 in ESE 2.5 mph 4.3 mph 81 % 0 in
08:15 35.8 °F 30.4 °F 30.2 in SSE 0.9 mph 5.6 mph 81 % 0 in
08:20 36.1 °F 31.1 °F 30.2 in ESE 1.1 mph 5.6 mph 82 % 0 in
08:25 36.1 °F 30.9 °F 30.2 in SE 5.4 mph 6.5 mph 81 % 0 in
08:30 36.7 °F 31.3 °F 30.2 in SE 2.7 mph 7.6 mph 81 % 0 in
08:35 36.9 °F 31.5 °F 30.2 in ESE 4.9 mph 7.6 mph 81 % 0 in
08:40 37 °F 31.8 °F 30.2 in SSE 2.5 mph 5.8 mph 81 % 0 in
08:45 37.6 °F 32 °F 30.2 in SSE 2.9 mph 7.4 mph 80 % 0 in
08:50 37.9 °F 32.4 °F 30.2 in SSE 5.8 mph 7.4 mph 80 % 0 in
08:55 38.5 °F 32.4 °F 30.2 in SSE 3.8 mph 7.4 mph 79 % 0 in
09:00 38.5 °F 32.4 °F 30.2 in SSE 4.3 mph 7.4 mph 78 % 0 in
09:05 39 °F 32.5 °F 30.2 in SSE 3.8 mph 6.3 mph 77 % 0 in
09:10 39.6 °F 33.1 °F 30.2 in SSE 6 mph 8.7 mph 77 % 0 in
09:16 39.9 °F 33.1 °F 30.2 in SSE 2.5 mph 8.7 mph 76 % 0 in
09:21 40.1 °F 32.7 °F 30.2 in SSE 5.4 mph 8.1 mph 75 % 0 in
09:26 40.5 °F 32.7 °F 30.2 in SE 4.3 mph 6.3 mph 74 % 0 in
09:31 40.8 °F 32.7 °F 30.2 in SE 5.6 mph 8.7 mph 73 % 0 in
09:36 41.2 °F 32.7 °F 30.2 in SSE 5.8 mph 8.7 mph 72 % 0 in
09:41 41.4 °F 33.1 °F 30.3 in Calm   8.1 mph 72 % 0 in
09:46 41.9 °F 33.4 °F 30.3 in SSE 5.4 mph 8.1 mph 72 % 0 in
09:51 42.3 °F 33.8 °F 30.3 in SSE 2 mph 8.1 mph 72 % 0 in
09:56 42.4 °F 33.6 °F 30.3 in South 2.5 mph 7.4 mph 71 % 0 in
10:01 42.8 °F 33.6 °F 30.3 in South 5.4 mph 8.1 mph 70 % 0 in
10:06 43 °F 33.4 °F 30.3 in South 3.8 mph 8.5 mph 69 % 0 in
10:11 43.3 °F 34.2 °F 30.3 in SSE 0.9 mph 8.5 mph 70 % 0 in
10:16 43.9 °F 34.3 °F 30.3 in SE 4.3 mph 8.7 mph 69 % 0 in
10:21 44.2 °F 34.5 °F 30.3 in SSE 6.3 mph 9.8 mph 69 % 0 in
10:26 44.4 °F 34.5 °F 30.2 in East 3.4 mph 9.8 mph 68 % 0 in
10:31 45.1 °F 35.1 °F 30.2 in SE 3.6 mph 8.5 mph 68 % 0 in
10:36 45.7 °F 35.2 °F 30.2 in SE 4.3 mph 8.5 mph 67 % 0 in
10:41 45.9 °F 35.1 °F 30.2 in SSE 6.5 mph 7.6 mph 66 % 0 in
10:46 46.2 °F 35.4 °F 30.2 in SSE 2.9 mph 7.6 mph 66 % 0 in
10:51 46.8 °F 35.2 °F 30.2 in SSE 4 mph 6.3 mph 64 % 0 in
10:56 47.1 °F 36 °F 30.3 in SSE 4.7 mph 7.4 mph 65 % 0 in
11:01 47.5 °F 35.4 °F 30.3 in SSE 5.4 mph 7.4 mph 63 % 0 in
11:06 48 °F 35.6 °F 30.3 in SSE 3.1 mph 6 mph 62 % 0 in
11:11 48.4 °F 35.6 °F 30.3 in SE 4.3 mph 6.3 mph 61 % 0 in
11:16 48.7 °F 36 °F 30.3 in SSE 4 mph 6.3 mph 61 % 0 in
11:21 49.5 °F 36.7 °F 30.3 in SE 3.1 mph 6 mph 61 % 0 in
11:26 49.8 °F 36.9 °F 30.3 in Calm   5.8 mph 61 % 0 in
11:31 50.4 °F 37.4 °F 30.3 in Calm   5.8 mph 61 % 0 in
11:36 50.7 °F 36.9 °F 30.3 in South 2.7 mph 5.6 mph 59 % 0 in
11:41 51.3 °F 37.4 °F 30.2 in Calm   4 mph 59 % 0 in
11:46 51.6 °F 37.2 °F 30.2 in SE 6.3 mph 7.2 mph 58 % 0 in
11:51 51.8 °F 37.4 °F 30.2 in ESE 4.3 mph 7.2 mph 58 % 0 in
11:56 52.2 °F 37.2 °F 30.3 in SSE 2.9 mph 6.3 mph 57 % 0 in
12:01 52.9 °F 37.9 °F 30.3 in SE 3.1 mph 7.8 mph 57 % 0 in
12:06 53.2 °F 37.9 °F 30.3 in SSE 4.3 mph 7.8 mph 56 % 0 in
12:11 53.2 °F 37.4 °F 30.2 in ESE 3.6 mph 6 mph 55 % 0 in
12:16 53.2 °F 37.6 °F 30.2 in SE 4.9 mph 8.5 mph 55 % 0 in
12:21 53.4 °F 37.8 °F 30.2 in ENE 6.5 mph 8.5 mph 55 % 0 in
12:27 54 °F 38.1 °F 30.3 in South 4.9 mph 7.4 mph 55 % 0 in
12:32 54.1 °F 37.9 °F 30.3 in SSE 4.9 mph 7.4 mph 54 % 0 in
12:37 54.3 °F 37.6 °F 30.3 in SSE 6.7 mph 8.5 mph 53 % 0 in
12:42 54.7 °F 37.8 °F 30.3 in SE 6.3 mph 9.2 mph 53 % 0 in
12:47 54.9 °F 38.1 °F 30.3 in SSE 3.6 mph 9.2 mph 53 % 0 in
12:52 55 °F 38.3 °F 30.3 in SSE 6 mph 8.7 mph 53 % 0 in
12:57 55.6 °F 38.7 °F 30.3 in South 3.4 mph 8.7 mph 53 % 0 in
13:02 55.8 °F 38.8 °F 30.3 in SSE 6 mph 8.5 mph 53 % 0 in
13:07 55.9 °F 39 °F 30.3 in SSE 2.7 mph 7.8 mph 53 % 0 in
13:12 56.3 °F 39.4 °F 30.2 in SSE 3.6 mph 7.6 mph 53 % 0 in
13:17 56.7 °F 39.4 °F 30.2 in SSE 7.4 mph 7.4 mph 52 % 0 in
13:22 56.7 °F 39.4 °F 30.2 in SSE 1.6 mph 10.3 mph 52 % 0 in
13:27 56.8 °F 39.4 °F 30.3 in SSE 4.7 mph 10.7 mph 52 % 0 in
13:32 57.4 °F 40.5 °F 30.3 in SE 6.3 mph 10.7 mph 53 % 0 in
13:37 57.2 °F 39.2 °F 30.3 in SE 8.1 mph 10.7 mph 51 % 0 in
13:42 57 °F 39 °F 30.3 in SE 6.3 mph 10.7 mph 51 % 0 in
13:47 57.4 °F 39.4 °F 30.3 in SE 3.4 mph 10.5 mph 51 % 0 in
13:52 57.9 °F 40.5 °F 30.3 in SSE 7.2 mph 10.1 mph 52 % 0 in
13:57 58.1 °F 40.6 °F 30.3 in SSE 4.7 mph 10.1 mph 52 % 0 in
14:02 58.6 °F 41.2 °F 30.3 in ESE 5.6 mph 7.4 mph 52 % 0 in
14:07 58.5 °F 40.5 °F 30.3 in SE 6 mph 8.1 mph 51 % 0 in
14:12 58.5 °F 40.5 °F 30.3 in SE 6.5 mph 9.2 mph 51 % 0 in
14:17 58.6 °F 40.5 °F 30.3 in SSE 5.4 mph 9.2 mph 51 % 0 in
14:22 58.8 °F 40.6 °F 30.3 in SE 5.4 mph 7.4 mph 51 % 0 in
14:27 59 °F 40.5 °F 30.3 in SE 5.4 mph 8.7 mph 50 % 0 in
14:32 59 °F 40.5 °F 30.3 in SSE 5.8 mph 9.8 mph 50 % 0 in
14:37 59.5 °F 41.4 °F 30.3 in SSE 6 mph 9.8 mph 51 % 0 in
14:42 59.5 °F 40.8 °F 30.3 in South 4 mph 9.8 mph 50 % 0 in
14:47 59.7 °F 40.5 °F 30.3 in SE 8.7 mph 9.8 mph 49 % 0 in
14:52 59.9 °F 41.2 °F 30.3 in SSE 2.9 mph 8.7 mph 50 % 0 in
14:57 60.1 °F 41.4 °F 30.3 in SSE 4.7 mph 8.7 mph 50 % 0 in
15:02 60.3 °F 41.5 °F 30.3 in South 7.8 mph 7.8 mph 50 % 0 in
15:07 60.6 °F 41.7 °F 30.3 in SSE 3.8 mph 7.8 mph 50 % 0 in
15:12 60.8 °F 42.1 °F 30.3 in South 4 mph 7.8 mph 50 % 0 in
15:17 60.8 °F 42.1 °F 30.3 in South 4.3 mph 8.5 mph 50 % 0 in
15:22 60.4 °F 41.7 °F 30.3 in South 2.5 mph 8.5 mph 50 % 0 in
15:27 60.4 °F 41.7 °F 30.3 in South 4.3 mph 8.7 mph 50 % 0 in
15:32 60.3 °F 41.5 °F 30.3 in SSE 2.7 mph 8.7 mph 50 % 0 in
15:37 60.1 °F 41.4 °F 30.3 in SE 5.4 mph 8.7 mph 50 % 0 in
15:42 60.1 °F 41.4 °F 30.3 in SSE 5.6 mph 8.7 mph 50 % 0 in
15:47 59.9 °F 41.2 °F 30.3 in SSE 7.6 mph 10.3 mph 50 % 0 in
15:52 59.7 °F 41 °F 30.3 in South 6 mph 10.3 mph 50 % 0 in
15:57 58.8 °F 40.3 °F 30.3 in SSE 5.6 mph 10.7 mph 50 % 0 in
16:02 58.1 °F 40.1 °F 30.3 in South 4 mph 10.7 mph 51 % 0 in
16:07 57.7 °F 39.7 °F 30.3 in Calm   8.7 mph 51 % 0 in
16:12 57.6 °F 40.1 °F 30.3 in SSE 4 mph 8.7 mph 52 % 0 in
16:18 57.9 °F 40.8 °F 30.3 in SSE 4 mph 7.8 mph 53 % 0 in
16:23 58.1 °F 41.5 °F 30.3 in SSE 4.7 mph 7.8 mph 54 % 0 in
16:28 57.9 °F 41.4 °F 30.3 in Calm   8.1 mph 54 % 0 in
16:33 57.6 °F 41 °F 30.3 in South 3.6 mph 8.1 mph 54 % 0 in
16:38 57.6 °F 41.5 °F 30.3 in SSW 1.3 mph 6 mph 55 % 0 in
16:43 57.4 °F 41.7 °F 30.3 in SSW 1.3 mph 6.5 mph 56 % 0 in
16:48 57 °F 41.5 °F 30.3 in Calm   7.2 mph 56 % 0 in
16:53 57 °F 41.5 °F 30.3 in SSE 3.1 mph 8.7 mph 56 % 0 in
16:58 56.8 °F 41.4 °F 30.3 in SE 4.3 mph 8.7 mph 56 % 0 in
17:03 56.7 °F 41.2 °F 30.3 in SSE 2.2 mph 5.4 mph 56 % 0 in
17:08 56.3 °F 41.4 °F 30.3 in Calm   5.4 mph 57 % 0 in
17:13 55.9 °F 41 °F 30.3 in SSE 0.9 mph 6 mph 57 % 0 in
17:18 55.6 °F 40.6 °F 30.3 in SE 5.6 mph 7.2 mph 57 % 0 in
17:23 55.2 °F 40.3 °F 30.3 in SE 3.4 mph 7.2 mph 57 % 0 in
17:28 55 °F 40.6 °F 30.3 in SE 2 mph 6.5 mph 58 % 0 in
17:33 54.9 °F 40.3 °F 30.3 in SE 4.9 mph 7.2 mph 58 % 0 in
17:38 54.3 °F 40.5 °F 30.3 in SSE 1.6 mph 7.2 mph 59 % 0 in
17:43 54 °F 39.9 °F 30.3 in SE 4 mph 5.8 mph 59 % 0 in
17:48 53.4 °F 39.9 °F 30.3 in Calm   4.5 mph 60 % 0 in
17:53 53.2 °F 40.3 °F 30.3 in East 4 mph 6.5 mph 61 % 0 in
17:58 53.1 °F 40.3 °F 30.3 in Calm   6.5 mph 62 % 0 in
18:03 52.5 °F 39.9 °F 30.3 in Calm   4.9 mph 62 % 0 in
18:08 52.5 °F 39.7 °F 30.3 in Calm   4.9 mph 62 % 0 in
18:13 52 °F 39.7 °F 30.3 in Calm   3.8 mph 63 % 0 in
18:18 51.4 °F 39.2 °F 30.3 in Calm     63 % 0 in
18:23 51.1 °F 39.4 °F 30.3 in Calm   2.9 mph 64 % 0 in
18:28 50.9 °F 39.6 °F 30.3 in SE 4.7 mph 4.7 mph 65 % 0 in
18:33 50.7 °F 39.7 °F 30.3 in Calm   4.7 mph 66 % 0 in
18:38 50.2 °F 39.2 °F 30.3 in Calm   4.7 mph 66 % 0 in
18:43 49.8 °F 38.8 °F 30.3 in Calm   2 mph 66 % 0 in
18:48 49.6 °F 39 °F 30.3 in ESE 3.1 mph 3.4 mph 67 % 0 in
18:53 49.8 °F 39.7 °F 30.3 in Calm   4.3 mph 68 % 0 in
18:58 50 °F 39.7 °F 30.3 in SSE 3.4 mph 4.3 mph 68 % 0 in
19:03 50 °F 39.7 °F 30.3 in Calm   5.4 mph 68 % 0 in
19:08 50 °F 39.7 °F 30.3 in Calm   5.4 mph 68 % 0 in
19:13 50 °F 40.3 °F 30.3 in Calm   4.3 mph 69 % 0 in
19:18 49.8 °F 39.9 °F 30.3 in Calm   2 mph 69 % 0 in
19:23 49.5 °F 39.7 °F 30.3 in Calm   2.9 mph 69 % 0 in
19:28 49.1 °F 39.4 °F 30.3 in Calm   2.9 mph 69 % 0 in
19:33 48.9 °F 39.2 °F 30.3 in Calm   4 mph 69 % 0 in
19:38 48.6 °F 39.2 °F 30.3 in Calm   4 mph 70 % 0 in
19:39 48.6 °F 39.2 °F 30.3 in Calm   2.7 mph 70 % 0 in
19:44 48.4 °F 39 °F 30.3 in Calm     70 % 0 in
19:49 48 °F 38.7 °F 30.3 in Calm     70 % 0 in
19:54 47.7 °F 38.8 °F 30.3 in Calm     71 % 0 in
19:59 47.5 °F 38.7 °F 30.3 in Calm   2.7 mph 71 % 0 in
20:04 47.5 °F 38.8 °F 30.3 in Calm   2.7 mph 72 % 0 in
20:09 47.3 °F 38.8 °F 30.3 in Calm   2.7 mph 72 % 0 in
20:14 47.5 °F 39.4 °F 30.3 in Calm   4 mph 73 % 0 in
20:19 47.8 °F 39.6 °F 30.3 in SSE 3.4 mph 6 mph 73 % 0 in
20:24 48.4 °F 40.1 °F 30.3 in SSE 3.8 mph 7.8 mph 73 % 0 in
20:29 48.6 °F 40.3 °F 30.3 in South 5.6 mph 8.9 mph 73 % 0 in
20:34 48.7 °F 40.5 °F 30.3 in SSE 3.1 mph 8.9 mph 73 % 0 in
20:39 49.1 °F 40.8 °F 30.3 in SSE 5.4 mph 7.8 mph 73 % 0 in
20:44 49.1 °F 40.8 °F 30.3 in SSE 5.4 mph 7.8 mph 73 % 0 in
20:50 49.1 °F 40.8 °F 30.3 in South 4 mph 8.1 mph 73 % 0 in
20:55 48.9 °F 40.6 °F 30.3 in SSE 5.6 mph 8.1 mph 73 % 0 in
20:59 48.9 °F 40.3 °F 30.3 in SSE 4.9 mph 8.7 mph 72 % 0 in
21:05 48.7 °F 40.1 °F 30.3 in SSE 5.4 mph 8.7 mph 72 % 0 in
21:10 48.7 °F 40.1 °F 30.4 in South 5.6 mph 7.8 mph 72 % 0 in
21:15 48.6 °F 39.9 °F 30.4 in SSE 6.7 mph 9.8 mph 72 % 0 in
21:20 48.6 °F 39.9 °F 30.4 in SE 5.8 mph 9.8 mph 72 % 0 in
21:25 48.6 °F 39.9 °F 30.4 in SSE 4.9 mph 8.7 mph 72 % 0 in
21:30 48.6 °F 39.9 °F 30.4 in South 2.9 mph 9.2 mph 72 % 0 in
21:35 48.6 °F 39.9 °F 30.4 in South 4.3 mph 9.2 mph 72 % 0 in
21:40 48.6 °F 39.9 °F 30.4 in South 6.5 mph 8.7 mph 72 % 0 in
21:45 48.7 °F 40.1 °F 30.4 in SE 5.4 mph 7.8 mph 72 % 0 in
21:50 48.9 °F 40.3 °F 30.4 in SSE 4 mph 7.8 mph 72 % 0 in
21:55 48.9 °F 39.9 °F 30.4 in South 7.6 mph 7.8 mph 71 % 0 in
22:00 49.1 °F 40.1 °F 30.4 in South 4.3 mph 8.7 mph 71 % 0 in
22:05 49.1 °F 40.1 °F 30.4 in SSE 4.3 mph 8.7 mph 71 % 0 in
22:10 48.9 °F 39.9 °F 30.4 in SE 5.8 mph 8.7 mph 71 % 0 in
22:15 48.9 °F 39.6 °F 30.4 in South 6 mph 7.4 mph 70 % 0 in
22:20 48.7 °F 39.4 °F 30.4 in South 3.6 mph 8.1 mph 70 % 0 in
22:25 48.6 °F 39.2 °F 30.4 in South 2.9 mph 8.1 mph 70 % 0 in
22:30 48.4 °F 39 °F 30.4 in SSE 3.4 mph 6.7 mph 70 % 0 in
22:35 48 °F 38.7 °F 30.4 in SE 1.1 mph 5.8 mph 70 % 0 in
22:40 47.7 °F 38.5 °F 30.4 in SSE 2.7 mph 5.8 mph 70 % 0 in
22:45 47.5 °F 38.1 °F 30.4 in South 5.6 mph 5.6 mph 70 % 0 in
22:50 47.5 °F 38.1 °F 30.4 in Calm   6.3 mph 70 % 0 in
22:55 47.3 °F 38.1 °F 30.4 in South 1.3 mph 6.3 mph 70 % 0 in
23:00 46.9 °F 37.8 °F 30.4 in Calm   5.4 mph 70 % 0 in
23:05 46.9 °F 38.1 °F 30.4 in SSE 4.7 mph 5.8 mph 71 % 0 in
23:10 46.8 °F 37.9 °F 30.4 in Calm   5.8 mph 71 % 0 in
23:16 46.6 °F 37.8 °F 30.4 in Calm   6.3 mph 71 % 0 in
23:21 46.2 °F 37.4 °F 30.4 in SSE 4 mph 6.3 mph 71 % 0 in
23:26 46 °F 37.2 °F 30.4 in SE 5.8 mph 5.8 mph 71 % 0 in
23:31 46 °F 37.6 °F 30.4 in SSE 3.6 mph 5.8 mph 72 % 0 in
23:36 45.9 °F 37.4 °F 30.4 in Calm   4.9 mph 72 % 0 in
23:41 45.9 °F 37.2 °F 30.4 in South 2.5 mph 5.6 mph 72 % 0 in
23:46 45.9 °F 37.6 °F 30.4 in SE 3.1 mph 6.5 mph 73 % 0 in
23:51 45.9 °F 37.6 °F 30.4 in Calm   6.5 mph 73 % 0 in
23:56 45.7 °F 37.4 °F 30.4 in SSE 3.6 mph 6 mph 73 % 0 in
Le Gheer Warneton
Courtoisie de Weather Underground - 2.25 mb

Mise a jour : 17-12-17 07:20:13
Généré par Cumulus 1.9.4 (1099)